Time;durP1;ratioP1;P1;durP2;ratioP2;P2;SDS_P1;SDS_P2;PMS_P1;PMS_P2;Temp;Humidity;BMP_temperature;BMP_pressure;BME280_temperature;BME280_humidity;BME280_pressure;Samples;Min_cycle;Max_cycle;Signal;HPM_P1;HPM_P2
2022/03/03 00:02:20;;;;;;;5.10;4.60;;;;;;;;;;5058766;28;20202;-85
2022/03/03 00:04:47;;;;;;;5.72;4.55;;;;;;;;;;5059135;28;20209;-86
2022/03/03 00:07:16;;;;;;;5.28;4.50;;;;;;;;;;5060320;28;20210;-85
2022/03/03 00:09:43;;;;;;;4.97;4.55;;;;;;;;;;5059213;28;20255;-85
2022/03/03 00:12:11;;;;;;;5.35;4.72;;;;;;;;;;5060021;28;20331;-86
2022/03/03 00:14:38;;;;;;;6.10;4.78;;;;;;;;;;5059827;28;20202;-85
2022/03/03 00:17:07;;;;;;;5.75;5.22;;;;;;;;;;5058968;28;20260;-85
2022/03/03 00:19:34;;;;;;;4.53;4.13;;;;;;;;;;5059097;28;20284;-86
2022/03/03 00:22:01;;;;;;;5.97;5.43;;;;;;;;;;5059522;28;20259;-85
2022/03/03 00:24:30;;;;;;;6.43;5.28;;;;;;;;;;5059169;28;20257;-85
2022/03/03 00:26:58;;;;;;;5.20;4.70;;;;;;;;;;5058902;28;20228;-85
2022/03/03 00:29:25;;;;;;;4.85;4.40;;;;;;;;;;5058726;28;20580;-85
2022/03/03 00:31:52;;;;;;;5.82;5.22;;;;;;;;;;5057862;28;20713;-85
2022/03/03 00:34:20;;;;;;;4.55;4.15;;;;;;;;;;5058097;28;20717;-85
2022/03/03 00:36:47;;;;;;;8.52;4.70;;;;;;;;;;5059224;28;20198;-85
2022/03/03 00:39:14;;;;;;;5.15;4.53;;;;;;;;;;5058243;28;20193;-85
2022/03/03 00:41:43;;;;;;;5.88;5.28;;;;;;;;;;5057868;28;20209;-86
2022/03/03 00:44:10;;;;;;;6.00;4.68;;;;;;;;;;5058297;28;20229;-85
2022/03/03 00:46:38;;;;;;;5.10;4.60;;;;;;;;;;5056032;22;20257;-84
2022/03/03 00:49:06;;;;;;;4.72;4.30;;;;;;;;;;5036869;28;20203;-83
2022/03/03 00:51:34;;;;;;;6.10;5.20;;;;;;;;;;5037293;28;20687;-84
2022/03/03 00:54:01;;;;;;;5.47;4.45;;;;;;;;;;5037026;28;20205;-84
2022/03/03 00:56:29;;;;;;;4.05;3.72;;;;;;;;;;5036640;28;20224;-84
2022/03/03 01:01:29;;;;;;;5.70;4.90;;;;;;;;;;5033346;28;20214;-86
2022/03/03 01:03:56;;;;;;;4.03;3.63;;;;;;;;;;5032670;28;20194;-86
2022/03/03 01:06:24;;;;;;;4.68;3.60;;;;;;;;;;5038218;28;20713;-87
2022/03/03 01:08:51;;;;;;;4.60;4.18;;;;;;;;;;5038188;28;20194;-87
2022/03/03 01:11:18;;;;;;;4.70;4.30;;;;;;;;;;5037935;28;20642;-86
2022/03/03 01:13:46;;;;;;;4.93;3.83;;;;;;;;;;5037145;28;20222;-87
2022/03/03 01:16:14;;;;;;;5.38;4.68;;;;;;;;;;5037490;28;20209;-87
2022/03/03 01:18:43;;;;;;;7.35;5.70;;;;;;;;;;5038519;28;20248;-87
2022/03/03 01:21:10;;;;;;;7.38;5.82;;;;;;;;;;5038027;28;20269;-86
2022/03/03 01:23:38;;;;;;;5.50;4.82;;;;;;;;;;5037857;28;20202;-84
2022/03/03 01:26:05;;;;;;;6.30;5.10;;;;;;;;;;5038133;28;20206;-86
2022/03/03 01:28:32;;;;;;;5.97;5.13;;;;;;;;;;5038514;28;20215;-86
2022/03/03 01:31:00;;;;;;;5.50;4.60;;;;;;;;;;5038798;28;20226;-86
2022/03/03 01:33:27;;;;;;;5.63;5.03;;;;;;;;;;5038203;28;20222;-86
2022/03/03 01:35:56;;;;;;;5.32;4.78;;;;;;;;;;5036928;28;20202;-87
2022/03/03 01:38:23;;;;;;;6.25;5.53;;;;;;;;;;5037958;28;20202;-86
2022/03/03 01:40:50;;;;;;;5.20;4.43;;;;;;;;;;5037047;28;20225;-86
2022/03/03 01:43:18;;;;;;;6.07;5.47;;;;;;;;;;5040774;28;20697;-83
2022/03/03 01:45:45;;;;;;;7.25;5.20;;;;;;;;;;5041410;28;20740;-83
2022/03/03 01:48:13;;;;;;;5.80;5.20;;;;;;;;;;5042680;28;20205;-83
2022/03/03 01:50:40;;;;;;;5.55;4.95;;;;;;;;;;5042360;28;20230;-83
2022/03/03 01:53:09;;;;;;;6.20;5.57;;;;;;;;;;5041282;28;20679;-84
2022/03/03 01:55:36;;;;;;;5.70;5.05;;;;;;;;;;5041417;28;20198;-84
2022/03/03 01:58:05;;;;;;;5.63;5.00;;;;;;;;;;5041946;28;20253;-83
2022/03/03 02:00:34;;;;;;;5.85;4.75;;;;;;;;;;5042041;28;20348;-84
2022/03/03 02:03:01;;;;;;;5.05;4.55;;;;;;;;;;5041107;28;20203;-84
2022/03/03 02:05:29;;;;;;;5.43;4.82;;;;;;;;;;5041707;28;20202;-84
2022/03/03 02:07:57;;;;;;;5.95;4.97;;;;;;;;;;5040741;28;20210;-84
2022/03/03 02:10:26;;;;;;;5.65;4.80;;;;;;;;;;5041680;28;20226;-84
2022/03/03 02:12:53;;;;;;;5.45;4.95;;;;;;;;;;5041469;28;20233;-84
2022/03/03 02:15:22;;;;;;;5.20;4.70;;;;;;;;;;5040763;28;20610;-84
2022/03/03 02:17:50;;;;;;;6.60;6.00;;;;;;;;;;5040907;28;20322;-84
2022/03/03 02:20:23;;;;;;;5.75;4.97;;;;;;;;;;5041280;28;20226;-84
2022/03/03 02:22:50;;;;;;;4.45;4.07;;;;;;;;;;5040916;28;20199;-82
2022/03/03 02:25:18;;;;;;;5.28;4.15;;;;;;;;;;5041397;28;20206;-84
2022/03/03 02:27:46;;;;;;;4.82;3.85;;;;;;;;;;5040787;28;20670;-83
2022/03/03 02:30:16;;;;;;;4.55;3.78;;;;;;;;;;5040468;28;20261;-84
2022/03/03 02:32:44;;;;;;;5.18;4.68;;;;;;;;;;5040558;28;20222;-84
2022/03/03 02:35:12;;;;;;;6.20;5.32;;;;;;;;;;5041241;28;20206;-83
2022/03/03 02:37:43;;;;;;;4.90;4.43;;;;;;;;;;5040455;28;20204;-82
2022/03/03 02:40:13;;;;;;;6.63;5.38;;;;;;;;;;5040746;28;20254;-83
2022/03/03 02:42:41;;;;;;;5.03;4.60;;;;;;;;;;5040472;28;20678;-83
2022/03/03 02:45:09;;;;;;;5.05;4.53;;;;;;;;;;5040624;28;20209;-84
2022/03/03 02:47:41;;;;;;;5.45;4.95;;;;;;;;;;5040755;28;20346;-84
2022/03/03 02:50:10;;;;;;;6.20;4.85;;;;;;;;;;5039840;28;20641;-84
2022/03/03 02:52:37;;;;;;;5.43;4.93;;;;;;;;;;5039422;28;20202;-84
2022/03/03 02:55:08;;;;;;;6.38;5.43;;;;;;;;;;5038991;28;20194;-84
2022/03/03 03:00:21;;;;;;;7.07;5.55;;;;;;;;;;5040405;28;20228;-84
2022/03/03 03:02:48;;;;;;;5.72;5.07;;;;;;;;;;5040706;28;20199;-84
2022/03/03 03:05:16;;;;;;;7.35;4.43;;;;;;;;;;5040287;28;20229;-84
2022/03/03 03:07:43;;;;;;;5.05;4.55;;;;;;;;;;5040069;28;20294;-83
2022/03/03 03:10:12;;;;;;;6.22;5.20;;;;;;;;;;5040656;28;20679;-84
2022/03/03 03:12:39;;;;;;;5.28;4.25;;;;;;;;;;5040140;28;20202;-83
2022/03/03 03:15:08;;;;;;;5.07;4.50;;;;;;;;;;5040364;28;20651;-84
2022/03/03 03:17:36;;;;;;;4.50;4.10;;;;;;;;;;5040720;28;20658;-83
2022/03/03 03:20:04;;;;;;;5.32;4.57;;;;;;;;;;5040378;28;20233;-84
2022/03/03 03:22:31;;;;;;;7.18;5.82;;;;;;;;;;5040675;28;20210;-83
2022/03/03 03:24:58;;;;;;;5.85;5.30;;;;;;;;;;5040142;28;20198;-84
2022/03/03 03:27:27;;;;;;;6.43;5.15;;;;;;;;;;5040970;28;20264;-82
2022/03/03 03:29:54;;;;;;;5.97;5.32;;;;;;;;;;5040075;28;20233;-83
2022/03/03 03:32:21;;;;;;;5.88;5.28;;;;;;;;;;5040020;28;20260;-83
2022/03/03 03:34:49;;;;;;;5.47;4.97;;;;;;;;;;5040981;28;20749;-83
2022/03/03 03:37:16;;;;;;;5.13;4.63;;;;;;;;;;5039461;28;20198;-81
2022/03/03 03:39:44;;;;;;;6.57;5.88;;;;;;;;;;5040363;28;20254;-82
2022/03/03 03:42:11;;;;;;;7.03;5.40;;;;;;;;;;5040651;28;20198;-86
2022/03/03 03:44:40;;;;;;;5.30;4.80;;;;;;;;;;5039185;28;20659;-86
2022/03/03 03:47:09;;;;;;;7.95;6.07;;;;;;;;;;5039606;28;20271;-85
2022/03/03 03:49:36;;;;;;;8.05;5.75;;;;;;;;;;5039229;28;20250;-86
2022/03/03 03:52:05;;;;;;;7.07;6.18;;;;;;;;;;5040248;28;20202;-84
2022/03/03 03:54:32;;;;;;;7.22;5.35;;;;;;;;;;5039698;28;20218;-85
2022/03/03 03:57:00;;;;;;;6.95;5.75;;;;;;;;;;5039396;28;20195;-86
2022/03/03 03:59:27;;;;;;;5.55;4.97;;;;;;;;;;5039553;28;20238;-84
2022/03/03 04:01:56;;;;;;;7.68;6.38;;;;;;;;;;5039604;28;20206;-86
2022/03/03 04:04:24;;;;;;;8.10;5.93;;;;;;;;;;5039547;28;20234;-86
2022/03/03 04:06:51;;;;;;;5.80;5.20;;;;;;;;;;5039758;28;20194;-86
2022/03/03 04:09:18;;;;;;;4.82;3.97;;;;;;;;;;5039532;28;20237;-86
2022/03/03 04:11:46;;;;;;;4.85;4.28;;;;;;;;;;5039208;28;20214;-86
2022/03/03 04:14:14;;;;;;;5.35;4.07;;;;;;;;;;5039242;28;20240;-86
2022/03/03 04:16:41;;;;;;;5.22;4.72;;;;;;;;;;5039203;28;20202;-86
2022/03/03 04:19:09;;;;;;;6.13;5.15;;;;;;;;;;5038925;28;20198;-86
2022/03/03 04:21:37;;;;;;;4.25;3.85;;;;;;;;;;5039140;28;20214;-86
2022/03/03 04:24:06;;;;;;;5.50;4.95;;;;;;;;;;5038622;28;20209;-86
2022/03/03 04:26:34;;;;;;;4.72;4.15;;;;;;;;;;5039733;28;20202;-86
2022/03/03 04:29:01;;;;;;;4.43;4.03;;;;;;;;;;5039043;28;20659;-86
2022/03/03 04:31:29;;;;;;;6.25;5.63;;;;;;;;;;5039567;28;20213;-86
2022/03/03 04:33:56;;;;;;;5.15;4.65;;;;;;;;;;5039002;28;20276;-86
2022/03/03 04:36:25;;;;;;;7.22;6.53;;;;;;;;;;5039366;28;20203;-84
2022/03/03 04:38:53;;;;;;;8.13;5.88;;;;;;;;;;5038468;28;20210;-86
2022/03/03 04:41:20;;;;;;;8.90;6.10;;;;;;;;;;5039875;28;20218;-85
2022/03/03 04:43:48;;;;;;;7.60;6.50;;;;;;;;;;5039077;28;20198;-85
2022/03/03 04:46:15;;;;;;;7.07;6.38;;;;;;;;;;5039778;28;20206;-86
2022/03/03 04:48:43;;;;;;;7.45;6.30;;;;;;;;;;5039192;28;20656;-86
2022/03/03 04:51:10;;;;;;;9.13;5.68;;;;;;;;;;5039182;28;20218;-85
2022/03/03 04:53:39;;;;;;;6.57;5.75;;;;;;;;;;5038126;28;20670;-86
2022/03/03 04:56:07;;;;;;;5.82;5.22;;;;;;;;;;5039223;28;20232;-86
2022/03/03 04:58:34;;;;;;;6.55;5.78;;;;;;;;;;5038485;28;20194;-86
2022/03/03 05:01:02;;;;;;;7.45;5.18;;;;;;;;;;5038064;28;20236;-86
2022/03/03 05:03:29;;;;;;;7.07;6.38;;;;;;;;;;5038450;28;20292;-86
2022/03/03 05:05:56;;;;;;;5.57;5.10;;;;;;;;;;5038386;28;20202;-86
2022/03/03 05:08:24;;;;;;;6.45;5.53;;;;;;;;;;5038362;28;20217;-85
2022/03/03 05:10:52;;;;;;;5.45;4.95;;;;;;;;;;5039104;28;20782;-84
2022/03/03 05:13:20;;;;;;;6.05;4.85;;;;;;;;;;5038472;28;20225;-86
2022/03/03 05:15:47;;;;;;;5.82;5.22;;;;;;;;;;5038739;28;20284;-86
2022/03/03 05:18:15;;;;;;;5.88;5.10;;;;;;;;;;5037983;28;20553;-86
2022/03/03 05:20:42;;;;;;;5.13;4.68;;;;;;;;;;5038821;28;20229;-85
2022/03/03 05:23:10;;;;;;;6.10;5.30;;;;;;;;;;5038274;28;20202;-83
2022/03/03 05:25:37;;;;;;;6.05;5.47;;;;;;;;;;5038842;28;20639;-86
2022/03/03 05:28:07;;;;;;;6.40;5.57;;;;;;;;;;5038794;28;20202;-84
2022/03/03 05:30:34;;;;;;;6.60;5.70;;;;;;;;;;5038578;28;20694;-85
2022/03/03 05:33:02;;;;;;;7.10;6.05;;;;;;;;;;5038433;28;20194;-86
2022/03/03 05:35:29;;;;;;;6.30;5.72;;;;;;;;;;5038539;28;20225;-86
2022/03/03 05:37:56;;;;;;;7.07;6.38;;;;;;;;;;5038133;28;20248;-85
2022/03/03 05:40:24;;;;;;;7.45;5.88;;;;;;;;;;5037620;28;20231;-85
2022/03/03 05:42:51;;;;;;;8.15;6.22;;;;;;;;;;5038495;28;20202;-85
2022/03/03 05:45:21;;;;;;;6.70;5.95;;;;;;;;;;5037712;28;20786;-85
2022/03/03 05:47:49;;;;;;;6.80;6.10;;;;;;;;;;5038270;28;20186;-85
2022/03/03 05:50:16;;;;;;;8.18;6.05;;;;;;;;;;5038099;28;20220;-87
2022/03/03 05:52:44;;;;;;;6.32;5.63;;;;;;;;;;5038662;28;20658;-85
2022/03/03 05:55:11;;;;;;;7.10;5.85;;;;;;;;;;5038229;28;20226;-85
2022/03/03 05:57:45;;;;;;;5.15;4.65;;;;;;;;;;5038292;28;20571;-82
2022/03/03 06:00:16;;;;;;;6.00;5.15;;;;;;;;;;5038124;28;20237;-84
2022/03/03 06:02:50;;;;;;;4.93;4.43;;;;;;;;;;5038513;28;20226;-81
2022/03/03 06:05:20;;;;;;;5.43;4.90;;;;;;;;;;5038480;28;20213;-82
2022/03/03 06:07:53;;;;;;;5.78;5.18;;;;;;;;;;5038235;28;20694;-83
2022/03/03 06:10:24;;;;;;;6.25;5.70;;;;;;;;;;5038735;28;20226;-83
2022/03/03 06:13:00;;;;;;;6.32;5.70;;;;;;;;;;5036625;28;20197;-81
2022/03/03 06:15:28;;;;;;;7.18;6.50;;;;;;;;;;5036478;28;20548;-82
2022/03/03 06:17:58;;;;;;;7.22;6.00;;;;;;;;;;5036865;28;20202;-83
2022/03/03 06:20:27;;;;;;;7.03;5.63;;;;;;;;;;5036995;28;20278;-83
2022/03/03 06:22:55;;;;;;;6.75;5.65;;;;;;;;;;5036740;28;20685;-82
2022/03/03 06:25:22;;;;;;;7.07;6.32;;;;;;;;;;5037120;28;20207;-84
2022/03/03 06:27:50;;;;;;;7.53;6.22;;;;;;;;;;5036864;28;20202;-84
2022/03/03 06:30:17;;;;;;;7.78;6.85;;;;;;;;;;5039658;28;20711;-84
2022/03/03 06:32:45;;;;;;;8.23;7.20;;;;;;;;;;5040087;28;20668;-84
2022/03/03 06:35:15;;;;;;;7.32;6.55;;;;;;;;;;5040327;28;20230;-84
2022/03/03 06:37:43;;;;;;;6.97;6.28;;;;;;;;;;5040691;28;20253;-84
2022/03/03 06:40:12;;;;;;;8.65;6.70;;;;;;;;;;5040431;28;20218;-84
2022/03/03 06:42:39;;;;;;;9.40;6.60;;;;;;;;;;5040439;28;20210;-84
2022/03/03 06:45:07;;;;;;;7.13;6.50;;;;;;;;;;5040352;28;20195;-83
2022/03/03 06:47:35;;;;;;;6.95;6.25;;;;;;;;;;5040180;28;20209;-84
2022/03/03 06:50:03;;;;;;;9.43;7.20;;;;;;;;;;5035494;28;20229;-84
2022/03/03 06:52:34;;;;;;;6.75;6.13;;;;;;;;;;5049218;28;20267;-84
2022/03/03 06:55:01;;;;;;;8.55;6.68;;;;;;;;;;5034441;28;20698;-84
2022/03/03 06:57:31;;;;;;;8.57;6.57;;;;;;;;;;5040298;28;20206;-84
2022/03/03 07:00:04;;;;;;;9.00;6.28;;;;;;;;;;5039387;28;20272;-81
2022/03/03 07:02:33;;;;;;;7.10;6.40;;;;;;;;;;5036237;28;20226;-81
2022/03/03 07:05:03;;;;;;;7.45;6.32;;;;;;;;;;5036462;28;20204;-80
2022/03/03 07:07:33;;;;;;;9.55;8.35;;;;;;;;;;5036417;28;20205;-80
2022/03/03 07:10:02;;;;;;;7.28;6.55;;;;;;;;;;5037146;28;20584;-80
2022/03/03 07:12:29;;;;;;;7.20;6.25;;;;;;;;;;5035911;28;20198;-80
2022/03/03 07:14:57;;;;;;;6.38;5.78;;;;;;;;;;5036522;28;20199;-81
2022/03/03 07:17:37;;;;;;;7.78;6.00;;;;;;;;;;5036958;28;20203;-81
2022/03/03 07:20:07;;;;;;;8.02;6.68;;;;;;;;;;5036461;28;20233;-81
2022/03/03 07:22:38;;;;;;;8.07;6.18;;;;;;;;;;5035797;28;20206;-80
2022/03/03 07:25:10;;;;;;;8.95;7.53;;;;;;;;;;5036420;28;20232;-81
2022/03/03 07:27:42;;;;;;;6.63;5.97;;;;;;;;;;5036851;28;20193;-82
2022/03/03 07:30:14;;;;;;;7.43;6.18;;;;;;;;;;5036680;28;20321;-81
2022/03/03 07:32:54;;;;;;;6.65;6.05;;;;;;;;;;5035240;28;20206;-81
2022/03/03 07:35:26;;;;;;;6.90;6.28;;;;;;;;;;5036253;28;20533;-81
2022/03/03 07:37:59;;;;;;;10.15;6.43;;;;;;;;;;5036670;28;20210;-81
2022/03/03 07:40:29;;;;;;;8.13;7.40;;;;;;;;;;5036136;28;20695;-80
2022/03/03 07:42:58;;;;;;;10.65;8.93;;;;;;;;;;5036380;28;20194;-81
2022/03/03 07:45:26;;;;;;;8.18;7.38;;;;;;;;;;5036485;28;20206;-81
2022/03/03 07:47:56;;;;;;;8.60;7.65;;;;;;;;;;5036779;28;20209;-81
2022/03/03 07:50:24;;;;;;;12.60;8.48;;;;;;;;;;5036597;28;20636;-81
2022/03/03 07:52:53;;;;;;;9.52;8.35;;;;;;;;;;5036869;28;20659;-82
2022/03/03 07:55:21;;;;;;;9.32;8.30;;;;;;;;;;5036890;28;20214;-81
2022/03/03 07:57:58;;;;;;;8.52;7.68;;;;;;;;;;5036116;28;20195;-82
2022/03/03 08:00:27;;;;;;;9.73;8.23;;;;;;;;;;5036651;28;20264;-81
2022/03/03 08:02:55;;;;;;;9.05;8.07;;;;;;;;;;5036551;28;20205;-82
2022/03/03 08:05:24;;;;;;;9.70;6.85;;;;;;;;;;5036607;28;20260;-81
2022/03/03 08:07:58;;;;;;;8.48;7.55;;;;;;;;;;5036265;28;20571;-81
2022/03/03 08:10:28;;;;;;;8.60;7.70;;;;;;;;;;5036154;28;20233;-81
2022/03/03 08:12:58;;;;;;;8.43;7.53;;;;;;;;;;5036763;28;20206;-81
2022/03/03 08:15:26;;;;;;;10.18;7.95;;;;;;;;;;5037256;28;20207;-82
2022/03/03 08:17:55;;;;;;;8.82;7.93;;;;;;;;;;5036377;28;20218;-82
2022/03/03 08:20:23;;;;;;;9.57;7.97;;;;;;;;;;5036720;28;20227;-81
2022/03/03 08:22:51;;;;;;;7.32;6.45;;;;;;;;;;5036465;28;20209;-81
2022/03/03 08:25:22;;;;;;;6.53;5.35;;;;;;;;;;5036351;28;20202;-82
2022/03/03 08:27:50;;;;;;;6.63;5.32;;;;;;;;;;5037027;28;20186;-81
2022/03/03 08:30:18;;;;;;;5.43;4.95;;;;;;;;;;5037628;28;20214;-82
2022/03/03 08:32:52;;;;;;;4.40;4.00;;;;;;;;;;5037815;28;20206;-81
2022/03/03 08:35:22;;;;;;;5.80;5.20;;;;;;;;;;5038737;28;20187;-83
2022/03/03 08:37:55;;;;;;;5.13;4.63;;;;;;;;;;5037494;28;20218;-83
2022/03/03 08:40:24;;;;;;;6.75;6.05;;;;;;;;;;5037678;28;20742;-83
2022/03/03 08:42:56;;;;;;;5.90;5.40;;;;;;;;;;5036864;28;20256;-82
2022/03/03 08:45:28;;;;;;;6.63;5.88;;;;;;;;;;5037325;28;20197;-83
2022/03/03 08:47:59;;;;;;;6.53;5.97;;;;;;;;;;5037502;28;20213;-83
2022/03/03 08:50:28;;;;;;;7.53;6.82;;;;;;;;;;5037709;28;20756;-82
2022/03/03 08:52:57;;;;;;;7.20;6.45;;;;;;;;;;5036298;28;20206;-82
2022/03/03 08:55:27;;;;;;;6.68;5.97;;;;;;;;;;5037235;28;20194;-82
2022/03/03 08:57:55;;;;;;;7.00;6.30;;;;;;;;;;5036955;28;20225;-82
2022/03/03 09:00:23;;;;;;;5.68;5.18;;;;;;;;;;5036908;28;20276;-83
2022/03/03 09:02:52;;;;;;;6.85;6.05;;;;;;;;;;5037449;28;20229;-83
2022/03/03 09:05:20;;;;;;;8.57;6.53;;;;;;;;;;5037169;28;20206;-82
2022/03/03 09:07:48;;;;;;;7.43;6.72;;;;;;;;;;5036914;28;20198;-82
2022/03/03 09:10:16;;;;;;;7.18;6.55;;;;;;;;;;5038326;28;20695;-82
2022/03/03 09:12:46;;;;;;;6.82;5.97;;;;;;;;;;5037307;28;20183;-82
2022/03/03 09:15:15;;;;;;;5.00;4.55;;;;;;;;;;5036178;28;20202;-82
2022/03/03 09:17:42;;;;;;;5.25;4.85;;;;;;;;;;5035633;28;20232;-83
2022/03/03 09:20:13;;;;;;;6.50;4.68;;;;;;;;;;5035792;28;20222;-83
2022/03/03 09:22:41;;;;;;;4.65;4.25;;;;;;;;;;5035733;28;20194;-83
2022/03/03 09:25:10;;;;;;;3.85;3.55;;;;;;;;;;5035068;28;20230;-83
2022/03/03 09:27:37;;;;;;;5.53;5.03;;;;;;;;;;5036139;28;20203;-83
2022/03/03 09:30:08;;;;;;;5.93;5.13;;;;;;;;;;5037767;28;20221;-84
2022/03/03 09:32:36;;;;;;;6.07;5.07;;;;;;;;;;5037774;28;20287;-82
2022/03/03 09:35:05;;;;;;;5.63;5.10;;;;;;;;;;5038058;28;20198;-83
2022/03/03 09:37:32;;;;;;;6.18;5.13;;;;;;;;;;5038416;28;20222;-83
2022/03/03 09:40:00;;;;;;;6.20;5.60;;;;;;;;;;5037526;28;20229;-82
2022/03/03 09:42:31;;;;;;;6.57;5.88;;;;;;;;;;5035955;28;20206;-83
2022/03/03 09:44:59;;;;;;;5.13;4.45;;;;;;;;;;5038380;28;20194;-83
2022/03/03 09:47:28;;;;;;;4.78;4.35;;;;;;;;;;5035604;28;20248;-84
2022/03/03 09:49:55;;;;;;;6.57;5.93;;;;;;;;;;5037213;28;20302;-84
2022/03/03 09:52:22;;;;;;;5.53;4.75;;;;;;;;;;5036035;28;20206;-84
2022/03/03 09:54:54;;;;;;;6.00;5.45;;;;;;;;;;5037033;28;20193;-83
2022/03/03 09:57:21;;;;;;;7.53;6.72;;;;;;;;;;5037218;28;20686;-84
2022/03/03 09:59:49;;;;;;;6.03;5.43;;;;;;;;;;5035700;28;20234;-84
2022/03/03 10:02:16;;;;;;;6.40;5.90;;;;;;;;;;5034991;28;20202;-84
2022/03/03 10:04:45;;;;;;;4.78;4.38;;;;;;;;;;5038130;28;20221;-83
2022/03/03 10:07:12;;;;;;;4.47;4.07;;;;;;;;;;5039099;28;20202;-83
2022/03/03 10:12:23;;;;;;;5.47;4.97;;;;;;;;;;5038836;28;20675;-85
2022/03/03 10:14:51;;;;;;;5.43;4.93;;;;;;;;;;5040170;28;20194;-84
2022/03/03 10:17:18;;;;;;;5.65;4.25;;;;;;;;;;5040645;28;20348;-84
2022/03/03 10:19:54;;;;;;;5.20;4.30;;;;;;;;;;5040500;28;20313;-85
2022/03/03 10:22:38;;;;;;;3.78;3.38;;;;;;;;;;5039490;28;20202;-84
2022/03/03 10:25:06;;;;;;;5.22;4.75;;;;;;;;;;5039239;28;20669;-84
2022/03/03 10:27:34;;;;;;;5.80;5.30;;;;;;;;;;5039672;28;20209;-84
2022/03/03 10:30:05;;;;;;;4.05;3.75;;;;;;;;;;5039220;28;20226;-85
2022/03/03 10:32:35;;;;;;;4.97;4.47;;;;;;;;;;5038908;28;20210;-84
2022/03/03 10:35:15;;;;;;;3.97;3.63;;;;;;;;;;5038321;28;20189;-84
2022/03/03 10:37:43;;;;;;;8.05;3.95;;;;;;;;;;5039055;28;20697;-85
2022/03/03 10:40:13;;;;;;;4.20;3.90;;;;;;;;;;5039208;28;20234;-84
2022/03/03 10:42:46;;;;;;;4.10;3.80;;;;;;;;;;5038891;28;20202;-85
2022/03/03 10:45:17;;;;;;;3.80;3.50;;;;;;;;;;5039091;28;20277;-85
2022/03/03 10:47:46;;;;;;;4.57;4.20;;;;;;;;;;5039433;28;20193;-85
2022/03/03 10:50:15;;;;;;;6.00;5.45;;;;;;;;;;5039134;28;20703;-85
2022/03/03 10:52:44;;;;;;;4.32;4.03;;;;;;;;;;5040150;28;20203;-86
2022/03/03 10:55:16;;;;;;;4.97;4.47;;;;;;;;;;5039899;28;20270;-84
2022/03/03 10:57:46;;;;;;;5.53;4.90;;;;;;;;;;5039962;28;20206;-85
2022/03/03 11:00:17;;;;;;;4.75;4.35;;;;;;;;;;5039300;28;20249;-85
2022/03/03 11:02:46;;;;;;;3.53;3.22;;;;;;;;;;5040084;28;20195;-86
2022/03/03 11:05:17;;;;;;;4.93;4.53;;;;;;;;;;5038529;28;20202;-85
2022/03/03 11:07:46;;;;;;;5.90;4.35;;;;;;;;;;5039769;28;20191;-85
2022/03/03 11:10:16;;;;;;;5.28;4.88;;;;;;;;;;5038889;28;20609;-84
2022/03/03 11:12:45;;;;;;;4.97;4.57;;;;;;;;;;5038891;28;20197;-84
2022/03/03 11:15:13;;;;;;;5.97;5.38;;;;;;;;;;5038262;28;20225;-85
2022/03/03 11:17:41;;;;;;;5.20;4.70;;;;;;;;;;5040086;28;20225;-84
2022/03/03 11:20:12;;;;;;;4.38;3.97;;;;;;;;;;5039103;28;20218;-85
2022/03/03 11:22:41;;;;;;;3.60;3.30;;;;;;;;;;5039306;28;20553;-84
2022/03/03 11:25:12;;;;;;;3.70;3.40;;;;;;;;;;5039484;28;20198;-85
2022/03/03 11:27:41;;;;;;;5.25;4.07;;;;;;;;;;5037944;28;20186;-85
2022/03/03 11:30:17;;;;;;;4.30;3.90;;;;;;;;;;5038394;28;20569;-85
2022/03/03 11:32:46;;;;;;;4.13;3.75;;;;;;;;;;5038587;28;20560;-85
2022/03/03 11:35:15;;;;;;;3.97;3.60;;;;;;;;;;5037626;28;20213;-85
2022/03/03 11:37:46;;;;;;;3.38;3.17;;;;;;;;;;5038470;28;20206;-84
2022/03/03 11:40:17;;;;;;;4.45;4.05;;;;;;;;;;5037605;28;20222;-85
2022/03/03 11:42:50;;;;;;;5.15;4.65;;;;;;;;;;5037459;28;20187;-84
2022/03/03 11:45:31;;;;;;;5.50;4.45;;;;;;;;;;5037659;28;20186;-83
2022/03/03 11:48:11;;;;;;;4.28;3.92;;;;;;;;;;5037214;28;20183;-83
2022/03/03 11:50:39;;;;;;;4.55;3.58;;;;;;;;;;5036711;28;20218;-83
2022/03/03 11:53:23;;;;;;;4.28;3.88;;;;;;;;;;5037816;28;20194;-84
2022/03/03 11:56:01;;;;;;;4.57;4.18;;;;;;;;;;5037426;28;20246;-82
2022/03/03 11:58:32;;;;;;;4.55;3.70;;;;;;;;;;5036777;28;20256;-84
2022/03/03 12:01:11;;;;;;;4.60;4.20;;;;;;;;;;5037391;28;20230;-84
2022/03/03 12:04:02;;;;;;;3.40;3.15;;;;;;;;;;5037060;28;20182;-85
2022/03/03 12:06:40;;;;;;;5.97;5.40;;;;;;;;;;5037819;28;20273;-83
2022/03/03 12:09:26;;;;;;;6.15;5.65;;;;;;;;;;5037846;28;20202;-84
2022/03/03 12:12:08;;;;;;;6.38;4.88;;;;;;;;;;5037222;28;20191;-84
2022/03/03 12:14:39;;;;;;;4.30;3.90;;;;;;;;;;5036826;28;20174;-84
2022/03/03 12:17:40;;;;;;;3.90;3.60;;;;;;;;;;5038365;28;20244;-87
2022/03/03 12:20:34;;;;;;;3.50;3.20;;;;;;;;;;5037436;28;20280;-83
2022/03/03 12:23:11;;;;;;;2.70;2.50;;;;;;;;;;5038874;28;20237;-86
2022/03/03 12:26:02;;;;;;;4.22;3.80;;;;;;;;;;5038415;28;20232;-86
2022/03/03 12:28:39;;;;;;;4.50;4.10;;;;;;;;;;5037054;28;20179;-84
2022/03/03 12:31:22;;;;;;;3.03;2.83;;;;;;;;;;5037200;28;20226;-86
2022/03/03 12:33:58;;;;;;;3.50;3.15;;;;;;;;;;5037509;28;20214;-86
2022/03/03 12:36:26;;;;;;;3.33;2.95;;;;;;;;;;5037626;28;20639;-85
2022/03/03 12:38:54;;;;;;;3.05;2.75;;;;;;;;;;5037385;28;20376;-86
2022/03/03 12:41:25;;;;;;;2.88;2.63;;;;;;;;;;5037643;28;20237;-87
2022/03/03 12:43:53;;;;;;;3.20;2.90;;;;;;;;;;5037345;28;20198;-86
2022/03/03 12:46:20;;;;;;;3.10;2.90;;;;;;;;;;5037121;28;20199;-85
2022/03/03 12:48:48;;;;;;;3.78;3.40;;;;;;;;;;5037759;28;20198;-86
2022/03/03 12:51:16;;;;;;;3.35;3.05;;;;;;;;;;5037316;28;20222;-85
2022/03/03 12:53:47;;;;;;;4.90;2.65;;;;;;;;;;5037713;28;20202;-86
2022/03/03 12:56:23;;;;;;;2.95;2.17;;;;;;;;;;5037203;28;20244;-84
2022/03/03 12:58:51;;;;;;;5.80;3.25;;;;;;;;;;5035524;28;20632;-84
2022/03/03 13:01:22;;;;;;;2.60;2.40;;;;;;;;;;5074329;22;20226;-88
2022/03/03 13:03:50;;;;;;;2.63;2.42;;;;;;;;;;5054704;28;20565;-88
2022/03/03 13:06:20;;;;;;;3.85;2.75;;;;;;;;;;5054052;28;20284;-88
2022/03/03 13:08:48;;;;;;;4.38;3.97;;;;;;;;;;5054051;28;20288;-87
2022/03/03 13:11:19;;;;;;;5.03;4.07;;;;;;;;;;5053551;28;20233;-87
2022/03/03 13:13:54;;;;;;;4.53;4.18;;;;;;;;;;5054004;28;20188;-88
2022/03/03 13:16:24;;;;;;;3.97;3.53;;;;;;;;;;5054243;28;20227;-88
2022/03/03 13:18:52;;;;;;;4.43;3.33;;;;;;;;;;5053463;28;20279;-87
2022/03/03 13:21:23;;;;;;;4.07;3.38;;;;;;;;;;5054028;28;20214;-87
2022/03/03 13:23:55;;;;;;;3.88;3.47;;;;;;;;;;5053929;28;20205;-86
2022/03/03 13:26:25;;;;;;;3.33;2.90;;;;;;;;;;5053739;28;20186;-86
2022/03/03 13:28:56;;;;;;;3.70;3.40;;;;;;;;;;5053955;28;20620;-86
2022/03/03 13:31:26;;;;;;;4.20;3.83;;;;;;;;;;5054079;28;20217;-87
2022/03/03 13:33:55;;;;;;;4.22;3.22;;;;;;;;;;5053929;28;20215;-86
2022/03/03 13:36:26;;;;;;;4.50;3.88;;;;;;;;;;5053463;28;20617;-87
2022/03/03 13:38:56;;;;;;;3.70;3.40;;;;;;;;;;5055253;28;20185;-89
2022/03/03 13:41:34;;;;;;;4.88;3.95;;;;;;;;;;5057210;28;20235;-88
2022/03/03 13:44:17;;;;;;;3.80;3.50;;;;;;;;;;5057728;28;20213;-88
2022/03/03 13:46:58;;;;;;;3.30;3.00;;;;;;;;;;5057873;28;20205;-88
2022/03/03 13:49:28;;;;;;;3.95;3.55;;;;;;;;;;5057298;28;20291;-88
2022/03/03 13:52:11;;;;;;;4.65;4.25;;;;;;;;;;5057308;28;20212;-88
2022/03/03 13:54:48;;;;;;;3.67;3.38;;;;;;;;;;5057684;28;20265;-88
2022/03/03 13:57:38;;;;;;;3.72;3.38;;;;;;;;;;5057618;28;20184;-88
2022/03/03 14:00:19;;;;;;;3.05;2.85;;;;;;;;;;5057084;28;20685;-88
2022/03/03 14:02:51;;;;;;;2.72;2.45;;;;;;;;;;5056970;28;20182;-91
2022/03/03 14:05:31;;;;;;;2.88;2.67;;;;;;;;;;5057431;28;20229;-90
2022/03/03 14:07:59;;;;;;;3.67;3.38;;;;;;;;;;5057695;28;20285;-90
2022/03/03 14:10:28;;;;;;;5.43;4.68;;;;;;;;;;5057717;28;20226;-90
2022/03/03 14:13:03;;;;;;;5.68;4.88;;;;;;;;;;5057944;28;20197;-90
2022/03/03 14:15:32;;;;;;;4.47;4.07;;;;;;;;;;5057710;28;20216;-91
2022/03/03 14:18:00;;;;;;;4.32;3.92;;;;;;;;;;5057564;28;20205;-90
2022/03/03 14:20:27;;;;;;;5.97;4.82;;;;;;;;;;5057469;28;20689;-90
2022/03/03 14:22:56;;;;;;;4.57;3.83;;;;;;;;;;5057580;28;20204;-91
2022/03/03 14:25:24;;;;;;;3.67;3.28;;;;;;;;;;5057885;28;20571;-90
2022/03/03 14:27:52;;;;;;;3.13;2.83;;;;;;;;;;5057999;28;20595;-91
2022/03/03 14:30:22;;;;;;;4.95;4.45;;;;;;;;;;5057829;28;20313;-90
2022/03/03 14:32:52;;;;;;;3.35;3.05;;;;;;;;;;5057631;28;20251;-90
2022/03/03 14:35:20;;;;;;;3.78;3.47;;;;;;;;;;5058296;28;20267;-91
2022/03/03 14:37:47;;;;;;;3.83;3.50;;;;;;;;;;5057567;28;20201;-90
2022/03/03 14:40:18;;;;;;;4.30;3.17;;;;;;;;;;5056258;28;20221;-89
2022/03/03 14:42:46;;;;;;;3.78;3.47;;;;;;;;;;5056221;28;20200;-89
2022/03/03 14:45:13;;;;;;;4.90;4.40;;;;;;;;;;5056781;28;20219;-88
2022/03/03 14:47:42;;;;;;;5.40;4.43;;;;;;;;;;5056014;28;20650;-88
2022/03/03 14:50:13;;;;;;;4.25;3.85;;;;;;;;;;5055069;28;20237;-88
2022/03/03 14:52:42;;;;;;;4.30;3.80;;;;;;;;;;5056121;28;20233;-88
2022/03/03 14:55:10;;;;;;;3.83;3.53;;;;;;;;;;5056248;28;20229;-87
2022/03/03 14:57:38;;;;;;;3.65;3.35;;;;;;;;;;5056090;28;20201;-87
2022/03/03 15:00:09;;;;;;;3.33;3.03;;;;;;;;;;5055312;28;20225;-87
2022/03/03 15:02:37;;;;;;;4.60;4.20;;;;;;;;;;5054785;28;20288;-87
2022/03/03 15:05:05;;;;;;;3.40;3.10;;;;;;;;;;5055915;28;20201;-87
2022/03/03 15:07:34;;;;;;;4.53;4.13;;;;;;;;;;5055594;28;20193;-88